Data for 06/10/2017

Time Sea-Level Adjusted Pressure Absolute Pressure Temperature Relative Humidity Dew Point   
(mb) (inHg) (mb) (inHg) (C) (F) (%) (C) (F)
00:05 1011 29.85 840 24.81 7.1 44.8 83 4.4 39.9
00:10 1011 29.85 841 24.83 7.2 44.9 82 4.3 39.8
00:15 1011 29.85 841 24.83 7.2 45 82 4.3 39.8
00:20 1011 29.85 840 24.81 7.2 44.9 82 4.3 39.7
00:25 1011 29.85 840 24.81 7.2 44.9 80 4.1 39.3
00:30 1011 29.85 840 24.81 7.2 45 81 4.3 39.7
00:35 1011 29.85 840 24.81 7.3 45.1 80 4.1 39.4
00:40 1011 29.85 840 24.81 7.1 44.8 82 4.2 39.5
00:45 1011 29.85 840 24.81 7 44.5 82 4.1 39.4
00:50 1011 29.85 840 24.81 7 44.5 81 4 39.2
00:55 1011 29.85 840 24.81 7 44.6 82 4.1 39.3
01:00 1011 29.85 840 24.81 6.9 44.5 81 3.9 39.1
01:05 1011 29.85 840 24.81 7 44.7 81 3.9 39.1
01:10 1011 29.85 840 24.81 7 44.7 82 4.2 39.5
01:15 1011 29.85 840 24.81 7.1 44.7 82 4.2 39.6
01:20 1011 29.85 840 24.81 7.1 44.7 83 4.4 39.8
01:25 1011 29.85 840 24.81 7 44.5 84 4.4 40
01:30 1011 29.85 840 24.81 6.9 44.4 82 4.1 39.3
01:35 1011 29.85 840 24.81 6.8 44.3 82 4 39.2
01:40 1011 29.85 840 24.81 6.9 44.3 81 3.9 38.9
01:45 1010 29.83 840 24.81 6.8 44.3 82 4.1 39.3
01:50 1010 29.83 839 24.78 6.7 44.1 84 4.3 39.7
01:55 1010 29.83 839 24.78 6.6 44 85 4.3 39.7
02:00 1010 29.83 839 24.78 6.6 43.8 85 4.2 39.5
02:05 1010 29.83 839 24.78 6.5 43.7 84 4 39.2
02:10 1010 29.83 839 24.78 6.5 43.8 83 3.9 39.1
02:15 1010 29.83 839 24.78 6.5 43.8 82 3.7 38.7
02:20 1010 29.83 839 24.78 6.6 43.8 82 3.8 38.8
02:25 1010 29.83 839 24.78 6.5 43.7 83 3.9 39
02:30 1010 29.83 839 24.78 6.4 43.5 84 3.9 39
02:35 1010 29.83 839 24.78 6.2 43.2 85 3.8 38.9
02:40 1010 29.83 839 24.78 6.1 42.9 85 3.8 38.8
02:45 1010 29.83 839 24.78 6 42.9 85 3.7 38.6
02:50 1010 29.83 839 24.78 6 42.8 85 3.6 38.4
02:55 1010 29.83 839 24.78 6 42.7 85 3.6 38.5
03:00 1010 29.83 839 24.78 5.9 42.6 84 3.5 38.3
03:05 1010 29.83 839 24.78 5.9 42.6 84 3.4 38.2
03:10 1010 29.83 839 24.78 5.8 42.5 85 3.4 38.2
03:15 1010 29.83 839 24.78 5.8 42.5 85 3.5 38.2
03:20 1010 29.83 839 24.78 5.7 42.3 85 3.4 38.2
03:25 1010 29.83 839 24.78 5.6 42.1 86 3.4 38.1
03:30 1010 29.83 839 24.78 5.5 41.9 86 3.3 38
03:35 1009 29.8 838 24.75 5.3 41.6 87 3.3 37.9
03:40 1009 29.8 838 24.75 5.3 41.5 86 3.2 37.7
03:45 1009 29.8 838 24.75 5.4 41.6 85 3 37.4
03:50 1009 29.8 839 24.78 5.4 41.7 84 3 37.3
03:55 1009 29.8 839 24.78 5.4 41.7 84 2.9 37.3
04:00 1009 29.8 839 24.78 5.6 42 82 2.8 37.1
04:05 1009 29.8 839 24.78 5.6 42.1 81 2.7 36.8
04:10 1009 29.8 838 24.75 5.6 42.2 82 2.9 37.1
04:15 1009 29.8 839 24.78 5.5 41.9 83 2.9 37.1
04:20 1009 29.8 839 24.78 5.3 41.5 83 2.6 36.8
04:25 1009 29.8 839 24.78 5.4 41.6 83 2.6 36.8
04:30 1009 29.8 839 24.78 5.2 41.4 84 2.7 36.9
04:35 1010 29.83 839 24.78 5.3 41.6 84 2.8 37
04:40 1010 29.83 839 24.78 5.4 41.7 83 2.7 36.9
04:45 1010 29.83 840 24.81 5.7 42.3 82 3 37.3
04:50 1011 29.85 840 24.81 5.9 42.6 81 3 37.4
04:55 1011 29.85 840 24.81 5.9 42.6 82 3.1 37.5
05:00 1011 29.85 840 24.81 5.2 41.3 85 2.9 37.2
05:05 1011 29.85 840 24.81 4.8 40.6 87 2.7 36.9
05:10 1011 29.85 840 24.81 4.6 40.3 87 2.7 36.8
05:15 1011 29.85 840 24.81 4.7 40.4 88 2.8 37.1
05:20 1011 29.85 841 24.83 4.7 40.4 89 3 37.3
05:25 1011 29.85 841 24.83 4.7 40.4 89 3 37.4
05:30 1012 29.88 841 24.83 4.7 40.5 89 3 37.4
05:35 1012 29.88 841 24.83 4.8 40.6 89 3.1 37.5
05:40 1012 29.88 841 24.83 4.8 40.6 88 3 37.4
05:45 1012 29.88 841 24.83 4.8 40.6 88 3 37.5
05:50 1012 29.88 841 24.83 4.8 40.6 88 3 37.3
05:55 1012 29.88 841 24.83 4.7 40.4 88 2.9 37.2
06:00 1012 29.88 841 24.83 4.6 40.4 89 2.9 37.3
06:05 1012 29.88 841 24.83 4.7 40.4 89 3.1 37.5
06:10 1012 29.88 841 24.83 4.6 40.3 89 3 37.4
06:15 1011 29.85 841 24.83 4.6 40.3 89 3 37.4
06:20 1012 29.88 841 24.83 4.5 40.1 89 2.8 37
06:25 1012 29.88 841 24.83 4.5 40.2 88 2.8 37
06:30 1012 29.88 841 24.83 4.6 40.3 88 2.8 37.1
06:35 1011 29.85 841 24.83 4.7 40.4 88 2.9 37.1
06:40 1011 29.85 841 24.83 4.8 40.6 88 2.9 37.2
06:45 1011 29.85 841 24.83 4.9 40.8 88 3.1 37.5
06:50 1011 29.85 840 24.81 4.9 40.8 87 2.9 37.2
06:55 1011 29.85 840 24.81 5.1 41.2 87 3.1 37.5
07:00 1011 29.85 840 24.81 5.3 41.5 85 3 37.3
07:05 1011 29.85 840 24.81 5.5 41.8 84 3 37.3
07:10 1011 29.85 840 24.81 6 42.8 80 2.9 37.2
07:15 1011 29.85 840 24.81 6.1 43 80 2.9 37.2
07:20 1011 29.85 840 24.81 6.5 43.7 76 2.6 36.6
07:25 1011 29.85 840 24.81 7.1 44.7 77 3.3 37.9
07:30 1010 29.83 840 24.81 7.7 45.9 70 2.6 36.7
07:35 1010 29.83 840 24.81 7.8 46 68 2.3 36.2
07:40 1010 29.83 840 24.81 7.9 46.3 69 2.6 36.6
07:45 1010 29.83 839 24.78 8.3 46.9 68 2.8 37.1
07:50 1010 29.83 839 24.78 8.4 47.2 69 3.1 37.6
07:55 1010 29.83 839 24.78 8.3 46.9 71 3.4 38.2
08:00 1010 29.83 839 24.78 8.2 46.7 70 3.1 37.6
08:05 1010 29.83 839 24.78 8.2 46.8 70 3 37.5
08:10 1010 29.83 839 24.78 8.5 47.2 66 2.6 36.7
08:15 1010 29.83 839 24.78 8.6 47.5 65 2.4 36.2
08:20 1010 29.83 839 24.78 9.1 48.3 64 2.6 36.7
08:25 1010 29.83 839 24.78 9.7 49.5 61 2.5 36.6
08:30 1010 29.83 839 24.78 10.1 50.2 61 3 37.3
08:35 1010 29.83 839 24.78 10.4 50.7 58 2.5 36.5
08:40 1010 29.83 839 24.78 10.6 51 58 2.6 36.7
08:45 1010 29.83 839 24.78 11.4 52.5 53 2.3 36.1
08:50 1010 29.83 839 24.78 11.8 53.2 55 3 37.4
08:55 1010 29.83 839 24.78 11.4 52.5 57 3.1 37.6
09:00 1010 29.83 839 24.78 11.2 52.2 57 3 37.4
09:05 1009 29.8 839 24.78 11.6 52.8 56 3.1 37.5
09:10 1009 29.8 839 24.78 11.5 52.7 56 3 37.3
09:15 1009 29.8 838 24.75 11.8 53.2 54 2.9 37.3
09:20 1009 29.8 838 24.75 11.6 52.9 52 2.3 36.1
09:25 1009 29.8 838 24.75 12.8 55 50 2.7 36.9
09:30 1009 29.8 838 24.75 12.9 55.2 50 2.9 37.2
09:35 1009 29.8 838 24.75 12.4 54.4 51 2.8 37
09:40 1009 29.8 838 24.75 12.2 54 53 2.9 37.3
09:45 1009 29.8 838 24.75 12.5 54.5 51 2.8 37.1
09:50 1009 29.8 838 24.75 13 55.4 51 3.2 37.8
09:55 1009 29.8 838 24.75 13.4 56.1 51 3.5 38.3
10:00 1009 29.8 838 24.75 12.8 55 52 3.1 37.6
10:05 1009 29.8 838 24.75 13.3 56 50 3.2 37.8
10:10 1008 29.77 838 24.75 13.7 56.7 48 3.1 37.6
10:15 1009 29.8 838 24.75 12.7 54.9 51 3 37.4
10:20 1009 29.8 838 24.75 12.2 53.9 51 2.3 36.1
10:25 1009 29.8 838 24.75 12.8 55 49 2.2 36
10:30 1009 29.8 838 24.75 12.5 54.6 50 2.4 36.3
10:35 1009 29.8 838 24.75 12.6 54.6 50 2.5 36.6
10:40 1009 29.8 838 24.75 12.4 54.3 55 3.8 38.8
10:45 1009 29.8 838 24.75 12.1 53.7 63 5.3 41.6
10:50 1009 29.8 838 24.75 11.5 52.7 69 6 42.9
10:55 1009 29.8 838 24.75 11.1 52 70 5.8 42.4
11:00 1009 29.8 838 24.75 10.7 51.2 70 5.5 42
11:05 1010 29.83 839 24.78 9.7 49.5 73 5.1 41.2
11:10 1010 29.83 839 24.78 8.7 47.7 78 5.1 41.3
11:15 1009 29.8 839 24.78 9 48.2 78 5.5 41.8
11:20 1009 29.8 839 24.78 10 50 74 5.6 42
11:25 1010 29.83 839 24.78 10.7 51.3 73 6.1 43
11:30 1010 29.83 839 24.78 11.2 52.2 63 4.5 40.1
11:35 1010 29.83 839 24.78 11.1 52 67 5.2 41.3
11:40 1010 29.83 839 24.78 11.9 53.3 66 5.7 42.2
11:45 1010 29.83 839 24.78 12 53.6 66 5.9 42.6
11:50 1010 29.83 839 24.78 11.8 53.2 63 5.1 41.1
11:55 1010 29.83 839 24.78 11.9 53.5 63 5.1 41.2
12:00 1009 29.8 839 24.78 11.9 53.4 63 5.1 41.1
12:05 1009 29.8 839 24.78 11.3 52.3 66 5.2 41.4
12:10 1009 29.8 839 24.78 11.6 52.9 61 4.4 40
12:15 1009 29.8 839 24.78 11.7 53.1 61 4.5 40
12:20 1009 29.8 839 24.78 11.6 52.9 64 5 41.1
12:25 1009 29.8 839 24.78 11.1 51.9 63 4.4 39.9
12:30 1009 29.8 838 24.75 11.3 52.3 61 4.2 39.5
12:35 1009 29.8 838 24.75 11.2 52.1 67 5.3 41.6
12:40 1009 29.8 838 24.75 11.1 52 66 5 41.1
12:45 1009 29.8 839 24.78 11.5 52.7 64 5 41
12:50 1009 29.8 839 24.78 11.1 52 66 5.1 41.1
12:55 1009 29.8 839 24.78 10.8 51.4 66 4.7 40.5
13:00 1009 29.8 839 24.78 10.8 51.5 72 6 42.7
13:05 1009 29.8 839 24.78 10.9 51.5 72 6 42.7
13:10 1010 29.83 839 24.78 10.4 50.7 66 4.2 39.6
13:15 1010 29.83 839 24.78 9.3 48.8 72 4.5 40.2
13:20 1010 29.83 839 24.78 8.2 46.8 72 3.4 38.1
13:25 1010 29.83 839 24.78 7.9 46.1 75 3.7 38.6
13:30 1010 29.83 839 24.78 8 46.4 73 3.5 38.3
13:35 1010 29.83 839 24.78 8.4 47.2 70 3.3 38
13:40 1010 29.83 839 24.78 8.8 47.8 70 3.7 38.6
13:45 1010 29.83 839 24.78 9 48.2 73 4.4 39.9
13:50 1010 29.83 839 24.78 9.2 48.6 73 4.6 40.2
13:55 1010 29.83 839 24.78 9.5 49 68 3.9 39
14:00 1010 29.83 839 24.78 9.7 49.5 62 2.9 37.2
14:05 1010 29.83 839 24.78 9.8 49.7 65 3.6 38.5
14:10 1010 29.83 839 24.78 9.9 49.9 63 3.2 37.7
14:15 1010 29.83 839 24.78 10 50.1 66 4 39.1
14:20 1010 29.83 839 24.78 10.2 50.3 64 3.8 38.8
14:25 1010 29.83 839 24.78 10.1 50.3 63 3.4 38.1
14:30 1009 29.8 839 24.78 10.3 50.5 63 3.6 38.6
14:35 1009 29.8 839 24.78 10.1 50.2 63 3.4 38.1
14:40 1009 29.8 839 24.78 10.1 50.3 62 3.3 38
14:45 1009 29.8 839 24.78 10.2 50.3 65 3.8 38.9
14:50 1009 29.8 839 24.78 10.9 51.7 60 3.6 38.5
14:55 1009 29.8 839 24.78 11.6 53 56 3.2 37.7
15:00 1009 29.8 839 24.78 11.9 53.3 55 3.1 37.6
15:05 1009 29.8 839 24.78 12.4 54.2 51 2.5 36.5
15:10 1009 29.8 839 24.78 12.6 54.7 49 2.2 36
15:15 1009 29.8 839 24.78 12.6 54.6 50 2.4 36.3
15:20 1009 29.8 839 24.78 12.7 54.9 50 2.6 36.7
15:25 1009 29.8 839 24.78 12.3 54.2 52 2.8 37.1
15:30 1009 29.8 838 24.75 12.4 54.3 52 2.9 37.3
15:35 1009 29.8 838 24.75 12.6 54.6 52 3.1 37.6
15:40 1009 29.8 838 24.75 12.8 55.1 47 1.9 35.3
15:45 1009 29.8 838 24.75 12.7 54.8 50 2.7 36.8
15:50 1009 29.8 839 24.78 12.2 53.9 56 3.6 38.4
15:55 1009 29.8 839 24.78 11.4 52.5 56 3 37.3
16:00 1010 29.83 839 24.78 11.1 52 56 2.8 37.1
16:05 1010 29.83 839 24.78 11.3 52.3 57 3 37.4
16:10 1010 29.83 839 24.78 11.4 52.5 57 3.1 37.6
16:15 1010 29.83 839 24.78 11.5 52.8 55 2.9 37.2
16:20 1010 29.83 839 24.78 11.5 52.7 56 3 37.3
16:25 1010 29.83 839 24.78 11.2 52.2 56 2.7 36.9
16:30 1010 29.83 839 24.78 11.2 52.1 54 2.2 36
16:35 1010 29.83 839 24.78 11.2 52.1 55 2.4 36.3
16:40 1010 29.83 839 24.78 11.1 51.9 56 2.5 36.6
16:45 1010 29.83 839 24.78 10.6 51.1 57 2.5 36.5
16:50 1010 29.83 839 24.78 10.2 50.4 60 2.9 37.3
16:55 1010 29.83 840 24.81 10.2 50.4 61 3.1 37.5
17:00 1010 29.83 840 24.81 10 50 60 2.6 36.7
17:05 1010 29.83 839 24.78 9.7 49.5 61 2.5 36.5
17:10 1010 29.83 839 24.78 9.5 49.1 62 2.7 36.9
17:15 1010 29.83 839 24.78 9.5 49 62 2.7 36.8
17:20 1010 29.83 839 24.78 9.4 49 62 2.6 36.6
17:25 1010 29.83 839 24.78 9.6 49.2 61 2.5 36.6
17:30 1010 29.83 839 24.78 9.6 49.3 62 2.8 37
17:35 1010 29.83 839 24.78 9.6 49.3 61 2.6 36.6
17:40 1010 29.83 839 24.78 9.8 49.6 61 2.6 36.7
17:45 1010 29.83 839 24.78 9.9 49.8 58 2 35.6
17:50 1010 29.83 839 24.78 10.1 50.2 60 2.6 36.7
17:55 1010 29.83 839 24.78 10.3 50.5 58 2.4 36.4
18:00 1010 29.83 839 24.78 10.6 51.1 55 2 35.5
18:05 1010 29.83 839 24.78 10.8 51.5 55 2.2 35.9
18:10 1010 29.83 839 24.78 11 51.9 58 3.1 37.5
18:15 1010 29.83 839 24.78 11.4 52.5 56 3 37.5
18:20 1010 29.83 839 24.78 11.7 53.1 53 2.4 36.3
18:25 1010 29.83 839 24.78 11.9 53.4 50 1.8 35.2
18:30 1010 29.83 839 24.78 11.8 53.3 50 1.7 35.1
18:35 1010 29.83 839 24.78 12 53.5 49 1.7 35.1
18:40 1010 29.83 839 24.78 12 53.7 50 1.9 35.5
18:45 1010 29.83 840 24.81 12.2 54 49 1.8 35.3
18:50 1011 29.85 840 24.81 12.3 54.1 51 2.6 36.7
18:55 1011 29.85 840 24.81 11.8 53.2 56 3.3 38
19:00 1011 29.85 840 24.81 11.6 52.8 57 3.4 38.2
19:05 1011 29.85 840 24.81 11.4 52.5 56 3.1 37.5
19:10 1011 29.85 840 24.81 11.1 52 58 3.1 37.6
19:15 1011 29.85 840 24.81 10.4 50.8 59 2.8 37.1
19:20 1011 29.85 840 24.81 10.1 50.1 60 2.7 36.9
19:25 1011 29.85 840 24.81 9.8 49.6 61 2.7 36.9
19:30 1011 29.85 841 24.83 9.3 48.7 64 2.9 37.2
19:35 1012 29.88 841 24.83 8.8 47.8 64 2.3 36.2
19:40 1012 29.88 841 24.83 8.6 47.4 65 2.3 36.2
19:45 1012 29.88 842 24.86 8.6 47.4 67 2.7 36.9
19:50 1013 29.91 842 24.86 8.5 47.3 68 3 37.3
19:55 1013 29.91 842 24.86 8.2 46.7 72 3.5 38.3
20:00 1013 29.91 842 24.86 7.8 46.1 74 3.6 38.4
20:05 1013 29.91 842 24.86 7.5 45.5 77 3.8 38.8
20:10 1013 29.91 842 24.86 7.3 45.1 75 3.2 37.7
20:15 1013 29.91 842 24.86 7.3 45.1 77 3.6 38.5
20:20 1013 29.91 842 24.86 7.3 45.2 76 3.3 38
20:25 1013 29.91 842 24.86 7.2 45 77 3.5 38.4
20:30 1013 29.91 842 24.86 7.3 45.1 73 2.8 37.1
20:35 1013 29.91 842 24.86 7.4 45.3 74 3.1 37.5
20:40 1013 29.91 842 24.86 7.5 45.4 76 3.6 38.5
20:45 1013 29.91 843 24.89 7.3 45.1 79 4 39.1
20:50 1013 29.91 843 24.89 7.2 44.9 79 3.7 38.7
20:55 1013 29.91 843 24.89 7.2 45 79 3.8 38.9
21:00 1013 29.91 843 24.89 7.1 44.8 79 3.8 38.8
21:05 1014 29.94 843 24.89 6.9 44.4 81 3.9 39.1
21:10 1014 29.94 843 24.89 6.7 44 81 3.7 38.7
21:15 1014 29.94 843 24.89 6.6 43.9 80 3.4 38.1
21:20 1014 29.94 843 24.89 6.7 44 79 3.4 38.1
21:25 1014 29.94 843 24.89 6.7 44.1 79 3.3 38
21:30 1014 29.94 843 24.89 6.7 44 79 3.3 37.9
21:35 1014 29.94 843 24.89 6.5 43.7 79 3.2 37.7
21:40 1014 29.94 843 24.89 6.4 43.6 77 2.8 37
21:45 1014 29.94 843 24.89 6.4 43.5 76 2.4 36.3
21:50 1014 29.94 843 24.89 6.3 43.4 75 2.2 36
21:55 1014 29.94 843 24.89 6.3 43.4 75 2.2 35.9
22:00 1014 29.94 843 24.89 6.2 43.2 76 2.2 36
22:05 1014 29.94 843 24.89 6.2 43.1 75 2.1 35.9
22:10 1014 29.94 843 24.89 6.1 43 76 2.2 36
22:15 1014 29.94 843 24.89 6.1 42.9 76 2.2 35.9
22:20 1014 29.94 843 24.89 6.2 43.1 76 2.2 36
22:25 1014 29.94 843 24.89 6.2 43.2 75 2 35.7
22:30 1014 29.94 843 24.89 6.2 43.2 75 2.1 35.8
22:35 1014 29.94 843 24.89 6.1 43 75 2 35.7
22:40 1014 29.94 843 24.89 6.1 43.1 76 2.2 35.9
22:45 1014 29.94 843 24.89 6.2 43.1 75 2.1 35.7
22:50 1014 29.94 843 24.89 6.2 43.2 73 1.8 35.3
22:55 1014 29.94 843 24.89 6.3 43.3 74 2 35.5
23:00 1014 29.94 843 24.89 6.3 43.3 74 2.1 35.7
23:05 1014 29.94 843 24.89 6.2 43.2 75 2.1 35.7
23:10 1014 29.94 843 24.89 6.2 43.2 74 1.9 35.5
23:15 1014 29.94 843 24.89 6.2 43.2 74 2 35.7
23:20 1014 29.94 843 24.89 6.2 43.1 75 2.1 35.8
23:25 1014 29.94 843 24.89 6 42.8 76 2.1 35.9
23:30 1014 29.94 843 24.89 5.7 42.3 78 2.1 35.9
23:35 1014 29.94 843 24.89 5.5 42 79 2.2 36
23:40 1014 29.94 843 24.89 5.4 41.8 79 2.1 35.7
23:45 1014 29.94 843 24.89 5.4 41.8 79 2.1 35.8
23:50 1014 29.94 843 24.89 5.3 41.6 80 2.1 35.7
23:55 1014 29.94 843 24.89 5.2 41.4 79 1.9 35.5
24:00 1014 29.94 843 24.89 5.2 41.3 80 2 35.6